createdAt,value
2018-12-17T00:04:21.189Z,101218.70
2018-12-17T00:09:26.032Z,101227.66
2018-12-17T00:14:29.042Z,101219.14
2018-12-17T00:19:31.711Z,101212.67
2018-12-17T00:24:34.595Z,101207.91
2018-12-17T00:29:37.313Z,101216.06
2018-12-17T00:34:40.292Z,101221.20
2018-12-17T00:39:43.005Z,101222.83
2018-12-17T00:44:45.777Z,101218.48
2018-12-17T00:49:48.673Z,101229.04
2018-12-17T00:54:51.455Z,101233.73
2018-12-17T00:59:54.158Z,101228.17
2018-12-17T01:04:56.953Z,101230.73
2018-12-17T01:09:59.946Z,101241.70
2018-12-17T01:15:04.172Z,101242.91
2018-12-17T01:20:07.816Z,101236.49
2018-12-17T01:25:10.766Z,101239.48
2018-12-17T01:30:13.817Z,101247.52
2018-12-17T01:35:16.632Z,101244.88
2018-12-17T01:40:19.574Z,101253.44
2018-12-17T01:45:22.597Z,101259.45
2018-12-17T01:50:25.435Z,101259.09
2018-12-17T01:55:28.213Z,101245.90
2018-12-17T02:00:31.047Z,101250.50
2018-12-17T02:05:33.901Z,101250.06
2018-12-17T02:10:36.800Z,101254.69
2018-12-17T02:15:40.373Z,101254.27
2018-12-17T02:20:43.040Z,101258.19
2018-12-17T02:25:45.962Z,101264.58
2018-12-17T02:30:48.935Z,101265.81
2018-12-17T02:35:51.669Z,101273.99
2018-12-17T02:40:54.292Z,101282.53
2018-12-17T02:45:57.131Z,101285.82
2018-12-17T02:50:59.997Z,101287.02
2018-12-17T02:56:03.070Z,101285.67
2018-12-17T03:01:06.858Z,101289.48
2018-12-17T03:06:11.032Z,101297.98
2018-12-17T03:11:13.918Z,101302.73
2018-12-17T03:16:16.616Z,101304.39
2018-12-17T03:21:19.456Z,101308.66
2018-12-17T03:26:22.591Z,101310.84
2018-12-17T03:31:25.697Z,101309.84
2018-12-17T03:36:28.664Z,101302.52
2018-12-17T03:41:31.591Z,101310.63
2018-12-17T03:46:34.640Z,101295.33
2018-12-17T03:51:37.425Z,101304.20
2018-12-17T03:56:40.566Z,101308.41
2018-12-17T04:01:43.398Z,101310.13
2018-12-17T04:06:46.285Z,101314.02
2018-12-17T04:11:48.977Z,101322.02
2018-12-17T04:16:51.764Z,101332.27
2018-12-17T04:21:54.521Z,101325.98
2018-12-17T04:26:58.213Z,101331.27
2018-12-17T04:32:01.084Z,101336.39
2018-12-17T04:37:04.322Z,101342.73
2018-12-17T04:42:08.077Z,101344.37
2018-12-17T04:47:10.973Z,101350.70
2018-12-17T04:52:13.733Z,101344.70
2018-12-17T04:57:16.606Z,101346.73
2018-12-17T05:02:19.396Z,101355.25
2018-12-17T05:07:22.540Z,101357.73
2018-12-17T05:12:25.514Z,101365.81
2018-12-17T05:17:28.277Z,101367.93
2018-12-17T05:22:31.081Z,101373.92
2018-12-17T05:27:33.952Z,101369.80
2018-12-17T05:32:36.801Z,101377.91
2018-12-17T05:37:39.571Z,101389.09
2018-12-17T05:42:42.506Z,101383.52
2018-12-17T05:47:45.336Z,101392.02
2018-12-17T05:52:48.151Z,101403.47
2018-12-17T05:57:50.759Z,101420.06
2018-12-17T06:02:53.589Z,101437.17
2018-12-17T06:07:56.329Z,101433.75
2018-12-17T06:12:59.068Z,101438.08
2018-12-17T06:18:02.054Z,101439.42
2018-12-17T06:23:05.010Z,101445.11
2018-12-17T06:28:08.106Z,101452.80
2018-12-17T06:33:15.637Z,101463.00
2018-12-17T06:38:16.888Z,101469.35
2018-12-17T06:43:20.063Z,101468.43
2018-12-17T06:48:22.963Z,101471.39
2018-12-17T06:53:25.805Z,101478.67
2018-12-17T06:58:29.397Z,101486.44
2018-12-17T07:03:32.251Z,101489.91
2018-12-17T07:08:35.078Z,101502.30
2018-12-17T07:13:37.752Z,101519.82
2018-12-17T07:18:40.465Z,101533.55
2018-12-17T07:23:43.240Z,101526.28
2018-12-17T07:28:45.984Z,101532.70
2018-12-17T07:33:48.879Z,101537.45
2018-12-17T07:38:52.020Z,101543.80
2018-12-17T07:43:55.145Z,101547.23
2018-12-17T07:48:58.133Z,101548.07
2018-12-17T07:54:01.014Z,101550.05
2018-12-17T07:59:03.893Z,101561.02
2018-12-17T08:04:06.741Z,101565.24
2018-12-17T08:09:09.609Z,101567.37
2018-12-17T08:14:12.509Z,101576.41
2018-12-17T08:19:15.216Z,101588.44
2018-12-17T08:24:18.119Z,101579.52
2018-12-17T08:29:20.913Z,101586.23
2018-12-17T08:34:23.819Z,101591.36
2018-12-17T08:39:26.650Z,101595.53
2018-12-17T08:44:29.545Z,101601.88
2018-12-17T08:49:32.597Z,101608.23
2018-12-17T08:54:35.350Z,101614.45
2018-12-17T08:59:38.002Z,101618.23
2018-12-17T09:04:41.098Z,101619.02
2018-12-17T09:09:44.071Z,101627.45
2018-12-17T09:14:46.935Z,101634.17
2018-12-17T09:19:49.726Z,101637.53
2018-12-17T09:24:52.742Z,101642.23
2018-12-17T09:29:55.648Z,101642.28
2018-12-17T09:34:58.425Z,101648.27
2018-12-17T09:40:01.554Z,101649.42
2018-12-17T09:45:07.220Z,101638.95
2018-12-17T09:50:10.079Z,101643.39
2018-12-17T09:55:12.936Z,101653.01
2018-12-17T10:00:15.829Z,101657.27
2018-12-17T10:05:18.781Z,101652.52
2018-12-17T10:10:21.836Z,101651.56
2018-12-17T10:15:25.003Z,101649.70
2018-12-17T10:20:27.881Z,101648.27
2018-12-17T10:25:30.773Z,101649.39
2018-12-17T10:30:33.575Z,101650.49
2018-12-17T10:35:36.527Z,101653.34
2018-12-17T10:40:39.573Z,101651.45
2018-12-17T10:45:42.574Z,101650.56
2018-12-17T10:50:45.690Z,101652.39
2018-12-17T10:55:48.392Z,101648.59
2018-12-17T11:00:57.127Z,101654.61
2018-12-17T11:06:04.170Z,101656.58
2018-12-17T11:11:07.165Z,101657.10
2018-12-17T11:16:10.290Z,101658.02
2018-12-17T11:21:13.004Z,101656.75
2018-12-17T11:26:15.667Z,101656.67
2018-12-17T11:31:18.523Z,101643.22
2018-12-17T11:36:21.545Z,101643.91
2018-12-17T11:41:24.308Z,101643.34
2018-12-17T11:46:27.226Z,101643.45
2018-12-17T11:51:30.194Z,101634.76
2018-12-17T12:02:14.570Z,101632.03
2018-12-17T12:07:17.402Z,101639.55
2018-12-17T12:12:20.361Z,101644.83
2018-12-17T12:17:23.341Z,101650.53
2018-12-17T12:22:26.049Z,101656.75
2018-12-17T12:27:29.455Z,101668.64
2018-12-17T12:32:32.415Z,101669.28
2018-12-17T12:37:35.532Z,101656.80
2018-12-17T12:42:38.465Z,101661.17
2018-12-17T12:47:41.401Z,101667.44
2018-12-17T12:52:44.532Z,101663.89
2018-12-17T12:57:47.434Z,101677.61
2018-12-17T13:02:50.310Z,101692.16
2018-12-17T13:07:53.106Z,101689.22
2018-12-17T13:12:55.937Z,101684.91
2018-12-17T13:17:59.538Z,101689.20
2018-12-17T13:23:02.395Z,101690.41
2018-12-17T13:28:05.404Z,101700.35
2018-12-17T13:33:08.268Z,101705.11
2018-12-17T13:38:11.316Z,101714.95
2018-12-17T13:43:14.197Z,101715.15
2018-12-17T13:53:31.708Z,101723.67
2018-12-17T13:58:35.352Z,101727.09
2018-12-17T14:03:38.225Z,101729.77
2018-12-17T14:08:41.182Z,101740.59
2018-12-17T14:13:44.194Z,101753.86
2018-12-17T14:18:52.990Z,101760.32
2018-12-17T14:23:55.847Z,101752.62
2018-12-17T14:28:58.586Z,101759.88
2018-12-17T14:34:01.411Z,101769.77
2018-12-17T14:39:06.956Z,101768.91
2018-12-17T14:44:17.566Z,101772.06
2018-12-17T14:49:20.396Z,101780.77
2018-12-17T14:54:23.362Z,101776.63
2018-12-17T14:59:26.240Z,101797.13
2018-12-17T15:04:29.302Z,101795.86
2018-12-17T15:09:31.970Z,101803.05
2018-12-17T15:14:34.584Z,101799.22
2018-12-17T15:19:37.538Z,101799.64
2018-12-17T15:24:40.699Z,101801.34
2018-12-17T15:29:43.557Z,101815.52
2018-12-17T15:34:46.251Z,101818.92
2018-12-17T15:39:49.131Z,101824.94
2018-12-17T15:44:55.482Z,101822.45
2018-12-17T15:49:58.058Z,101830.59
2018-12-17T15:55:02.488Z,101839.19
2018-12-17T16:00:10.162Z,101844.75
2018-12-17T16:05:13.025Z,101846.13
2018-12-17T16:10:15.788Z,101844.41
2018-12-17T16:15:18.649Z,101858.50
2018-12-17T16:20:21.661Z,101859.00
2018-12-17T16:25:24.846Z,101878.02
2018-12-17T16:30:27.678Z,101874.73
2018-12-17T16:35:30.517Z,101883.83
2018-12-17T16:40:33.860Z,101878.33
2018-12-17T16:45:37.029Z,101884.75
2018-12-17T16:50:40.290Z,101881.38
2018-12-17T16:55:44.505Z,101891.18
2018-12-17T17:00:47.417Z,101892.41
2018-12-17T17:05:50.393Z,101901.33
2018-12-17T17:10:53.472Z,101901.39
2018-12-17T17:15:56.661Z,101903.12
2018-12-17T17:20:59.494Z,101902.53
2018-12-17T17:26:02.589Z,101910.61
2018-12-17T17:31:05.560Z,101913.05
2018-12-17T17:36:08.477Z,101920.62
2018-12-17T17:41:11.405Z,101925.23
2018-12-17T17:46:14.154Z,101929.45
2018-12-17T17:51:17.288Z,101932.82
2018-12-17T17:56:20.201Z,101937.02
2018-12-17T18:01:23.073Z,101942.13
2018-12-17T18:06:25.923Z,101944.69
2018-12-17T18:11:28.824Z,101952.81
2018-12-17T18:16:31.870Z,101958.83
2018-12-17T18:21:34.775Z,101958.31
2018-12-17T18:26:37.619Z,101961.27
2018-12-17T18:31:40.496Z,101965.96
2018-12-17T18:36:43.682Z,101972.34
2018-12-17T18:41:46.589Z,101972.27
2018-12-17T18:46:52.513Z,101973.09
2018-12-17T18:51:55.512Z,101973.46
2018-12-17T18:57:01.470Z,101977.33
2018-12-17T19:02:04.543Z,101982.03
2018-12-17T19:07:07.493Z,101981.56
2018-12-17T19:12:10.401Z,101992.28
2018-12-17T19:17:13.516Z,102000.02
2018-12-17T19:22:16.381Z,102003.08
2018-12-17T19:27:19.525Z,102013.39
2018-12-17T19:32:22.478Z,102019.46
2018-12-17T19:37:25.410Z,102015.59
2018-12-17T19:42:28.311Z,102010.88
2018-12-17T19:47:31.197Z,102010.03
2018-12-17T19:52:34.152Z,102013.91
2018-12-17T19:57:37.116Z,102020.34
2018-12-17T20:02:46.851Z,102015.98
2018-12-17T20:07:44.938Z,102020.70
2018-12-17T20:12:47.671Z,102023.71
2018-12-17T20:17:50.518Z,102027.14
2018-12-17T20:22:53.249Z,102029.30
2018-12-17T20:27:55.914Z,102032.35
2018-12-17T20:38:11.318Z,102024.20
2018-12-17T20:43:14.089Z,102025.91
2018-12-17T20:48:17.020Z,102031.00
2018-12-17T20:53:20.209Z,102034.06
2018-12-17T20:58:23.121Z,102040.08
2018-12-17T21:03:26.014Z,102038.81
2018-12-17T21:08:28.654Z,102036.28
2018-12-17T21:13:31.545Z,102033.30
2018-12-17T21:18:34.386Z,102033.30
2018-12-17T21:23:37.580Z,102029.08
2018-12-17T21:28:40.310Z,102029.14
2018-12-17T21:33:43.023Z,102033.44
2018-12-17T21:38:45.725Z,102041.25
2018-12-17T21:43:48.719Z,102047.27
2018-12-17T21:48:51.669Z,102052.42
2018-12-17T21:53:54.438Z,102057.48
2018-12-17T21:58:57.550Z,102064.30
2018-12-17T22:04:00.376Z,102068.56
2018-12-17T22:09:05.828Z,102065.98
2018-12-17T22:14:10.676Z,102072.86
2018-12-17T22:19:14.837Z,102067.28
2018-12-17T22:24:17.846Z,102063.41
2018-12-17T22:29:21.442Z,102059.98
2018-12-17T22:34:25.334Z,102067.77
2018-12-17T22:39:28.126Z,102075.06
2018-12-17T22:44:31.183Z,102070.34
2018-12-17T22:49:34.238Z,102064.77
2018-12-17T22:54:37.094Z,102062.63
2018-12-17T22:59:39.905Z,102066.92
2018-12-17T23:04:42.765Z,102060.06
2018-12-17T23:10:03.168Z,102053.19
2018-12-17T23:15:23.541Z,102049.75
2018-12-17T23:20:26.471Z,102052.27
2018-12-17T23:25:31.503Z,102046.25
2018-12-17T23:30:35.863Z,102051.46
2018-12-17T23:35:38.687Z,102046.87
2018-12-17T23:40:41.298Z,102045.69
2018-12-17T23:45:51.171Z,102047.48
2018-12-17T23:50:54.274Z,102048.41
2018-12-17T23:55:57.127Z,102042.88
